Time;durP1;ratioP1;P1;durP2;ratioP2;P2;SDS_P1;SDS_P2;PMS_P1;PMS_P2;Temp;Humidity;BMP_temperature;BMP_pressure;BME280_temperature;BME280_humidity;BME280_pressure;Samples;Min_cycle;Max_cycle;Signal;HPM_P1;HPM_P2
2023/12/03 00:01:45;;;;;;;0.80;0.40;;;;;;;-143.84;55.93;45130.94;5088447;28;20438;-58
2023/12/03 00:04:14;;;;;;;2.10;1.10;;;;;;;-143.84;56.18;45121.44;5088181;28;20448;-58
2023/12/03 00:06:41;;;;;;;1.67;0.97;;;;;;;-143.84;56.50;45090.97;5090261;28;20508;-58
2023/12/03 00:09:08;;;;;;;1.00;0.80;;;;;;;-143.84;56.25;45123.34;5092249;28;20803;-58
2023/12/03 00:11:35;;;;;;;0.80;0.40;;;;;;;-143.84;55.94;45108.09;5092617;28;20439;-58
2023/12/03 00:14:02;;;;;;;1.50;0.90;;;;;;;-143.84;56.05;45104.28;5092456;28;20922;-58
2023/12/03 00:16:29;;;;;;;0.80;0.40;;;;;;;-143.84;55.90;45121.44;5092037;28;20494;-58
2023/12/03 00:18:57;;;;;;;0.80;0.40;;;;;;;-143.84;55.92;45085.25;5092083;28;20469;-58
2023/12/03 00:21:25;;;;;;;0.90;0.63;;;;;;;-143.84;55.88;45111.91;5091932;28;20443;-58
2023/12/03 00:23:52;;;;;;;7.07;0.70;;;;;;;-143.84;56.23;45121.44;5092195;28;21008;-58
2023/12/03 00:26:19;;;;;;;0.80;0.50;;;;;;;-143.84;56.20;45102.38;5092346;28;20464;-58
2023/12/03 00:28:46;;;;;;;0.80;0.40;;;;;;;-143.84;56.25;45098.56;5091979;28;20493;-58
2023/12/03 00:31:14;;;;;;;1.40;0.83;;;;;;;-143.84;56.51;45123.34;5092090;28;20493;-58
2023/12/03 00:33:41;;;;;;;1.60;0.70;;;;;;;-143.84;56.99;45094.78;5091983;28;20440;-58
2023/12/03 00:36:09;;;;;;;0.90;0.53;;;;;;;-143.84;57.57;45081.44;5091801;28;20471;-58
2023/12/03 00:38:37;;;;;;;1.73;1.50;;;;;;;-143.84;57.39;45102.38;5091690;28;20963;-58
2023/12/03 00:41:04;;;;;;;3.07;1.23;;;;;;;-143.84;57.52;45125.22;5092058;28;20464;-58
2023/12/03 00:43:32;;;;;;;0.80;0.50;;;;;;;-143.84;57.30;45106.19;5091890;28;20471;-58
2023/12/03 00:46:00;;;;;;;2.50;0.87;;;;;;;-143.84;57.56;45113.81;5091855;28;20929;-58
2023/12/03 00:48:28;;;;;;;0.80;0.50;;;;;;;-143.84;57.46;45136.66;5091874;28;20816;-58
2023/12/03 00:50:55;;;;;;;1.20;0.70;;;;;;;-143.84;57.48;45094.78;5091752;28;20487;-58
2023/12/03 00:53:22;;;;;;;0.80;0.40;;;;;;;-143.84;57.29;45089.06;5091665;28;20504;-58
2023/12/03 00:55:52;;;;;;;2.40;1.07;;;;;;;-143.84;57.38;45090.97;5091255;28;20486;-58
2023/12/03 00:58:19;;;;;;;1.97;0.60;;;;;;;-143.84;57.22;45098.56;5091454;28;20440;-58
2023/12/03 01:00:46;;;;;;;0.90;0.60;;;;;;;-143.84;57.19;45098.56;5091344;28;20937;-58
2023/12/03 01:03:13;;;;;;;0.80;0.57;;;;;;;-143.84;57.52;45106.19;5091375;28;20440;-58
2023/12/03 01:05:41;;;;;;;0.80;0.40;;;;;;;-143.84;57.67;45110.00;5091461;28;20442;-59
2023/12/03 01:08:08;;;;;;;1.17;1.07;;;;;;;-143.84;57.58;45110.00;5091285;28;20454;-58
2023/12/03 01:10:35;;;;;;;0.90;0.50;;;;;;;-143.84;57.69;45111.91;5091224;28;21117;-58
2023/12/03 01:13:04;;;;;;;2.30;0.63;;;;;;;-143.84;57.41;45098.56;5091086;28;20452;-58
2023/12/03 01:15:31;;;;;;;0.90;0.50;;;;;;;-143.84;57.33;45123.34;5090868;28;20495;-58
2023/12/03 01:17:58;;;;;;;0.93;0.50;;;;;;;-143.84;57.42;45094.78;5090210;28;20428;-58
2023/12/03 01:20:25;;;;;;;0.80;0.40;;;;;;;-143.84;57.79;45089.06;5091072;28;21276;-59
2023/12/03 01:22:52;;;;;;;2.90;0.70;;;;;;;-143.84;58.12;45106.19;5091033;28;20436;-59
2023/12/03 01:25:19;;;;;;;1.67;1.33;;;;;;;-143.84;58.30;45106.19;5091010;28;20831;-58
2023/12/03 01:27:46;;;;;;;8.27;0.83;;;;;;;-143.84;58.04;45094.78;5090928;28;20489;-58
2023/12/03 01:30:15;;;;;;;1.20;1.10;;;;;;;-143.84;58.31;45100.47;5090901;28;20432;-59
2023/12/03 01:32:42;;;;;;;0.90;0.60;;;;;;;-143.84;58.21;45115.72;5091078;28;20440;-58
2023/12/03 01:35:09;;;;;;;1.00;0.83;;;;;;;-143.84;58.52;45117.63;5090603;28;20479;-58
2023/12/03 01:37:37;;;;;;;1.23;0.50;;;;;;;-143.84;58.65;45127.13;5091073;28;20466;-59
2023/12/03 01:40:04;;;;;;;0.80;0.50;;;;;;;-143.84;58.91;45098.56;5090892;28;20440;-58
2023/12/03 01:42:34;;;;;;;4.03;0.70;;;;;;;-143.84;58.97;45100.47;5090422;28;20466;-58
2023/12/03 01:45:01;;;;;;;2.30;0.90;;;;;;;-143.84;58.68;45119.53;5090318;28;21174;-58
2023/12/03 01:47:30;;;;;;;3.33;1.63;;;;;;;-143.84;58.90;45094.78;5090451;28;20439;-59
2023/12/03 01:50:05;;;;;;;0.80;0.40;;;;;;;-143.84;58.73;45077.63;5090690;28;20497;-58
2023/12/03 01:52:32;;;;;;;3.47;1.67;;;;;;;-143.84;58.88;45079.53;5090373;28;20497;-59
2023/12/03 01:55:01;;;;;;;2.20;0.60;;;;;;;-143.84;59.38;45104.28;5090610;28;20484;-58
2023/12/03 01:57:28;;;;;;;3.43;0.83;;;;;;;-143.84;59.50;45125.22;5090364;28;20435;-58
2023/12/03 01:59:55;;;;;;;2.20;1.00;;;;;;;-143.84;59.76;45087.16;5090197;28;20876;-59
2023/12/03 02:02:23;;;;;;;0.80;0.50;;;;;;;-143.84;60.15;45085.25;5090048;28;20447;-59
2023/12/03 02:04:51;;;;;;;0.80;0.40;;;;;;;-143.84;60.43;45117.63;5090411;28;20463;-59
2023/12/03 02:07:19;;;;;;;8.13;0.90;;;;;;;-143.84;60.49;45102.38;5090165;28;20441;-59
2023/12/03 02:09:46;;;;;;;2.67;1.33;;;;;;;-143.84;61.19;45113.81;5090076;28;20989;-58
2023/12/03 02:12:14;;;;;;;0.80;0.60;;;;;;;-143.84;61.10;45104.28;5090140;28;20504;-58
2023/12/03 02:14:41;;;;;;;1.33;0.87;;;;;;;-143.84;61.16;45096.66;5090085;28;21190;-58
2023/12/03 02:17:08;;;;;;;2.03;1.17;;;;;;;-143.84;61.09;45104.28;5089794;28;20586;-59
2023/12/03 02:19:36;;;;;;;0.87;0.53;;;;;;;-143.84;61.15;45106.19;5090172;28;20447;-59
2023/12/03 02:22:04;;;;;;;0.80;0.40;;;;;;;-143.84;61.23;45110.00;5090205;28;20501;-59
2023/12/03 02:24:34;;;;;;;0.97;0.60;;;;;;;-143.84;61.33;45100.47;5089848;28;20443;-58
2023/12/03 02:27:01;;;;;;;0.80;0.50;;;;;;;-143.84;61.45;45110.00;5090287;28;20517;-59
2023/12/03 02:29:28;;;;;;;1.00;0.60;;;;;;;-143.84;61.63;45115.72;5089917;28;20505;-58
2023/12/03 02:31:56;;;;;;;0.90;0.40;;;;;;;-143.84;61.59;45102.38;5089586;28;20432;-59
2023/12/03 02:34:23;;;;;;;0.80;0.40;;;;;;;-143.84;61.72;45085.25;5089499;28;20444;-59
2023/12/03 02:36:50;;;;;;;0.90;0.40;;;;;;;-143.84;61.86;45092.88;5089511;28;20528;-58
2023/12/03 02:39:17;;;;;;;1.17;0.70;;;;;;;-143.84;62.12;45115.72;5089626;28;20505;-59
2023/12/03 02:41:46;;;;;;;0.80;0.50;;;;;;;-143.84;62.01;45108.09;5089440;28;20796;-58
2023/12/03 02:44:13;;;;;;;4.10;1.20;;;;;;;-143.84;62.22;45083.34;5089660;28;20435;-59
2023/12/03 02:46:40;;;;;;;0.90;0.60;;;;;;;-143.84;61.89;45113.81;5089666;28;20443;-59
2023/12/03 02:49:07;;;;;;;0.80;0.57;;;;;;;-143.84;61.77;45108.09;5089296;28;20435;-58
2023/12/03 02:51:34;;;;;;;4.20;1.23;;;;;;;-143.84;61.64;45094.78;5089149;28;21057;-58
2023/12/03 02:54:01;;;;;;;0.80;0.40;;;;;;;-143.84;61.90;45096.66;5089172;28;20432;-58
2023/12/03 02:56:28;;;;;;;0.80;0.50;;;;;;;-143.84;61.92;45089.06;5089269;28;20483;-58
2023/12/03 02:58:57;;;;;;;0.80;0.40;;;;;;;-143.84;62.06;45106.19;5089107;28;20447;-59
2023/12/03 03:01:24;;;;;;;1.10;0.70;;;;;;;-143.84;62.10;45110.00;5089362;28;20447;-58
2023/12/03 03:03:50;;;;;;;3.10;0.93;;;;;;;-143.84;61.97;45111.91;5089174;28;20485;-59
2023/12/03 03:06:17;;;;;;;0.90;0.60;;;;;;;-143.84;61.81;45115.72;5088917;28;20448;-59
2023/12/03 03:08:44;;;;;;;0.80;0.50;;;;;;;-143.84;61.87;45119.53;5088986;28;20454;-58
2023/12/03 03:11:11;;;;;;;0.80;0.60;;;;;;;-143.84;61.98;45104.28;5088961;28;20480;-58
2023/12/03 03:13:38;;;;;;;1.10;0.90;;;;;;;-143.84;62.17;45132.84;5088938;28;20432;-58
2023/12/03 03:16:08;;;;;;;0.80;0.40;;;;;;;-143.84;62.00;45098.56;5088847;28;20560;-58
2023/12/03 03:18:36;;;;;;;6.40;0.90;;;;;;;-143.84;62.35;45090.97;5089042;28;21106;-58
2023/12/03 03:21:03;;;;;;;0.80;0.40;;;;;;;-143.84;62.18;45087.16;5089184;28;20520;-58
2023/12/03 03:23:30;;;;;;;1.43;1.13;;;;;;;-143.84;62.15;45121.44;5088818;28;20538;-59
2023/12/03 03:25:57;;;;;;;1.77;1.03;;;;;;;-143.84;62.31;45110.00;5088530;28;20497;-58
2023/12/03 03:28:24;;;;;;;1.17;0.80;;;;;;;-143.84;62.66;45102.38;5088647;28;20436;-58
2023/12/03 03:30:52;;;;;;;0.80;0.40;;;;;;;-143.84;62.64;45090.97;5088611;28;20977;-59
2023/12/03 03:33:21;;;;;;;1.30;0.70;;;;;;;-143.84;62.49;45113.81;5088794;28;20507;-58
2023/12/03 03:35:48;;;;;;;5.13;0.77;;;;;;;-143.84;62.69;45115.72;5088556;28;20475;-58
2023/12/03 03:38:15;;;;;;;0.90;0.63;;;;;;;-143.84;62.45;45113.81;5088601;28;20862;-58
2023/12/03 03:40:42;;;;;;;0.80;0.40;;;;;;;-143.84;62.59;45087.16;5087884;28;20450;-59
2023/12/03 03:43:08;;;;;;;1.30;0.60;;;;;;;-143.84;62.41;45092.88;5088592;28;20443;-58
2023/12/03 03:45:36;;;;;;;3.27;0.57;;;;;;;-143.84;62.61;45087.16;5088354;28;20439;-59
2023/12/03 03:48:03;;;;;;;0.90;0.60;;;;;;;-143.84;62.64;45089.06;5088539;28;21257;-58
2023/12/03 03:50:31;;;;;;;0.90;0.73;;;;;;;-143.84;62.86;45094.78;5088723;28;20444;-59
2023/12/03 03:52:59;;;;;;;0.97;0.70;;;;;;;-143.84;62.61;45110.00;5088767;28;20776;-58
2023/12/03 03:55:26;;;;;;;0.90;0.73;;;;;;;-143.84;62.23;45102.38;5088137;28;20440;-59
2023/12/03 03:57:53;;;;;;;7.13;0.50;;;;;;;-143.84;62.80;45117.63;5088358;28;20531;-59
2023/12/03 04:00:20;;;;;;;0.90;0.70;;;;;;;-143.84;62.87;45117.63;5088389;28;20443;-59
2023/12/03 04:02:47;;;;;;;0.90;0.70;;;;;;;-143.84;62.69;45110.00;5088306;28;20878;-59
2023/12/03 04:05:15;;;;;;;0.90;0.60;;;;;;;-143.84;63.23;45121.44;5088251;28;20968;-58
2023/12/03 04:07:43;;;;;;;0.87;0.50;;;;;;;-143.84;63.67;45108.09;5088617;28;20805;-58
2023/12/03 04:10:12;;;;;;;0.80;0.50;;;;;;;-143.84;63.83;45081.44;5088371;28;20493;-59
2023/12/03 04:12:40;;;;;;;0.83;0.50;;;;;;;-143.84;63.61;45102.38;5088520;28;20440;-59
2023/12/03 04:15:08;;;;;;;0.80;0.50;;;;;;;-143.84;63.94;45111.91;5087805;28;21030;-59
2023/12/03 04:17:35;;;;;;;0.90;0.70;;;;;;;-143.84;63.92;45140.47;5088182;28;20475;-58
2023/12/03 04:20:04;;;;;;;2.37;0.80;;;;;;;-143.84;64.31;45108.09;5088088;28;20440;-58
2023/12/03 04:22:31;;;;;;;0.80;0.50;;;;;;;-143.84;64.41;45098.56;5088483;28;20521;-58
2023/12/03 04:25:00;;;;;;;1.10;0.57;;;;;;;-143.84;64.59;45106.19;5088314;28;20500;-58
2023/12/03 04:27:27;;;;;;;4.70;1.40;;;;;;;-143.84;64.84;45117.63;5087905;28;20512;-58
2023/12/03 04:29:54;;;;;;;3.43;2.03;;;;;;;-143.84;64.55;45121.44;5087218;28;20436;-58
2023/12/03 04:32:21;;;;;;;5.53;2.07;;;;;;;-143.84;64.79;45125.22;5087206;28;20443;-58
2023/12/03 04:34:48;;;;;;;2.30;1.17;;;;;;;-143.84;64.36;45111.91;5087748;28;20494;-59
2023/12/03 04:37:15;;;;;;;1.00;0.77;;;;;;;-143.84;64.27;45123.34;5087294;28;21057;-58
2023/12/03 04:39:43;;;;;;;0.80;0.50;;;;;;;-143.84;64.27;45111.91;5087237;28;20432;-58
2023/12/03 04:42:12;;;;;;;1.77;1.07;;;;;;;-143.84;63.64;45075.72;5087710;28;20485;-58
2023/12/03 04:44:39;;;;;;;2.63;1.20;;;;;;;-143.84;63.48;45111.91;5088034;28;20964;-58
2023/12/03 04:47:06;;;;;;;12.30;3.20;;;;;;;-143.84;63.80;45110.00;5087863;28;20440;-59
2023/12/03 04:49:33;;;;;;;0.90;0.50;;;;;;;-143.84;63.65;45106.19;5088063;28;20518;-58
2023/12/03 04:52:00;;;;;;;1.10;0.70;;;;;;;-143.84;63.43;45110.00;5088037;28;20509;-59
2023/12/03 04:54:27;;;;;;;0.80;0.50;;;;;;;-143.84;62.73;45115.72;5090492;28;20436;-58
2023/12/03 04:56:55;;;;;;;1.37;0.60;;;;;;;-143.84;62.29;45090.97;5091778;28;20992;-58
2023/12/03 04:59:23;;;;;;;2.07;1.33;;;;;;;-143.84;61.30;45090.97;5091545;28;20440;-59
2023/12/03 05:01:50;;;;;;;0.90;0.50;;;;;;;-143.84;61.23;45098.56;5091498;28;20452;-58
2023/12/03 05:04:17;;;;;;;0.90;0.77;;;;;;;-143.84;60.70;45136.66;5091509;28;20432;-59
2023/12/03 05:06:44;;;;;;;1.33;0.70;;;;;;;-143.84;59.89;45125.22;5091414;28;20950;-59
2023/12/03 05:09:13;;;;;;;0.80;0.40;;;;;;;-143.84;58.03;45090.97;5091153;28;20436;-59
2023/12/03 05:11:40;;;;;;;0.90;0.60;;;;;;;-143.84;57.52;45098.56;5091328;28;20447;-58
2023/12/03 05:14:08;;;;;;;3.47;2.53;;;;;;;-143.84;57.46;45115.72;5091261;28;20531;-58
2023/12/03 05:16:37;;;;;;;1.00;0.47;;;;;;;-143.84;56.93;45096.66;5090876;28;21028;-59
2023/12/03 05:19:04;;;;;;;0.90;0.70;;;;;;;-143.84;56.50;45113.81;5091174;28;20972;-59
2023/12/03 05:21:32;;;;;;;0.80;0.50;;;;;;;-143.84;56.17;45104.28;5091173;28;20459;-61
2023/12/03 05:23:59;;;;;;;0.80;0.40;;;;;;;-143.84;55.98;45119.53;5090864;28;20576;-61
2023/12/03 05:26:26;;;;;;;0.90;0.40;;;;;;;-143.84;55.66;45129.03;5091168;28;21009;-61
2023/12/03 05:28:54;;;;;;;0.83;0.50;;;;;;;-143.84;55.83;45125.22;5089766;28;20448;-61
2023/12/03 05:31:21;;;;;;;1.13;0.53;;;;;;;-143.84;56.35;45129.03;5085259;28;20444;-61
2023/12/03 05:33:49;;;;;;;0.80;0.40;;;;;;;-143.84;56.55;45096.66;5090824;28;20513;-61
2023/12/03 05:36:23;;;;;;;0.93;0.40;;;;;;;-143.84;56.11;45106.19;5082323;28;20484;-61
2023/12/03 05:38:51;;;;;;;1.90;0.90;;;;;;;-143.84;55.60;45104.28;5070360;28;20443;-61
2023/12/03 05:41:18;;;;;;;1.40;0.90;;;;;;;-143.84;55.53;45102.38;5079754;28;20995;-61
2023/12/03 05:43:45;;;;;;;0.80;0.47;;;;;;;-143.84;55.78;45111.91;5090716;28;20439;-61
2023/12/03 05:46:12;;;;;;;1.53;1.43;;;;;;;-143.84;54.94;45094.78;5090257;28;20436;-61
2023/12/03 05:48:40;;;;;;;0.90;0.53;;;;;;;-143.84;54.40;45090.97;5090232;28;20443;-61
2023/12/03 05:51:11;;;;;;;1.30;1.00;;;;;;;-143.84;54.35;45129.03;5090032;28;20987;-61
2023/12/03 05:53:38;;;;;;;1.43;0.50;;;;;;;-143.84;54.59;45083.34;5088047;28;20475;-60
2023/12/03 05:56:06;;;;;;;9.10;1.50;;;;;;;-143.84;53.92;45121.44;5089418;28;20497;-61
2023/12/03 05:58:33;;;;;;;0.80;0.57;;;;;;;-143.84;53.64;45111.91;5087237;28;20440;-61
2023/12/03 06:01:01;;;;;;;0.80;0.50;;;;;;;-143.84;54.23;45136.66;5090113;28;20443;-61
2023/12/03 06:03:28;;;;;;;0.80;0.50;;;;;;;-143.84;54.90;45106.19;5090293;28;20789;-60
2023/12/03 06:05:55;;;;;;;1.23;0.50;;;;;;;-143.84;55.10;45134.75;5090329;28;20440;-61
2023/12/03 06:08:24;;;;;;;1.13;0.80;;;;;;;-143.84;55.51;45113.81;5090179;28;20944;-61
2023/12/03 06:10:51;;;;;;;1.50;0.83;;;;;;;-143.84;55.67;45106.19;5089558;28;20537;-61
2023/12/03 06:13:18;;;;;;;1.00;0.60;;;;;;;-143.84;55.34;45117.63;5090015;28;20462;-61
2023/12/03 06:15:45;;;;;;;0.90;0.60;;;;;;;-143.84;54.65;45129.03;5089675;28;20581;-61
2023/12/03 06:18:12;;;;;;;0.80;0.50;;;;;;;-143.84;54.93;45129.03;5090085;28;20486;-61
2023/12/03 06:20:40;;;;;;;0.97;0.87;;;;;;;-143.84;56.03;45090.97;5089819;28;20456;-61
2023/12/03 06:23:07;;;;;;;0.87;0.53;;;;;;;-143.84;56.68;45130.94;5090195;28;20847;-61
2023/12/03 06:25:36;;;;;;;2.23;1.90;;;;;;;-143.84;56.65;45150.00;5089440;28;20534;-61
2023/12/03 06:28:03;;;;;;;1.30;0.97;;;;;;;-143.84;56.86;45092.88;5090056;28;20462;-61
2023/12/03 06:30:30;;;;;;;1.00;0.90;;;;;;;-143.84;57.77;45130.94;5089694;28;20432;-61
2023/12/03 06:32:57;;;;;;;1.23;1.10;;;;;;;-143.84;58.10;45108.09;5089866;28;20895;-61
2023/12/03 06:35:25;;;;;;;8.20;3.13;;;;;;;-143.84;58.50;45121.44;5089648;28;20850;-61
2023/12/03 06:37:52;;;;;;;0.90;0.60;;;;;;;-143.84;58.70;45127.13;5089563;28;20490;-61
2023/12/03 06:40:19;;;;;;;1.50;1.40;;;;;;;-143.84;58.96;45121.44;5089357;28;20925;-61
2023/12/03 06:42:47;;;;;;;1.97;1.77;;;;;;;-143.84;59.10;45083.34;5089419;28;20440;-61
2023/12/03 06:45:15;;;;;;;3.20;1.23;;;;;;;-143.84;58.61;45121.44;5089606;28;20444;-61
2023/12/03 06:47:42;;;;;;;2.17;2.07;;;;;;;-143.84;58.79;45108.09;5089508;28;20543;-61
2023/12/03 06:50:09;;;;;;;9.67;2.67;;;;;;;-143.84;59.67;45125.22;5089695;28;20428;-61
2023/12/03 06:52:37;;;;;;;3.13;2.60;;;;;;;-143.84;60.64;45125.22;5089512;28;20439;-61
2023/12/03 06:55:04;;;;;;;1.87;1.77;;;;;;;-143.84;59.86;45085.25;5089425;28;20844;-61
2023/12/03 06:57:31;;;;;;;1.93;1.70;;;;;;;-143.84;60.16;45108.09;5088959;28;20566;-61
2023/12/03 07:00:00;;;;;;;3.20;2.90;;;;;;;-143.84;60.04;45110.00;5089159;28;20435;-61
2023/12/03 07:02:27;;;;;;;2.40;1.83;;;;;;;-143.84;59.95;45098.56;5089196;28;20439;-61
2023/12/03 07:04:54;;;;;;;3.03;2.77;;;;;;;-143.84;61.26;45117.63;5088879;28;20505;-61
2023/12/03 07:07:21;;;;;;;2.20;2.00;;;;;;;-143.84;60.35;45111.91;5088882;28;20590;-61
2023/12/03 07:09:48;;;;;;;4.43;2.30;;;;;;;-143.84;59.70;45121.44;5089475;28;20428;-61
2023/12/03 07:12:16;;;;;;;2.03;1.80;;;;;;;-143.84;60.27;45106.19;5088834;28;20440;-61
2023/12/03 07:14:43;;;;;;;2.80;1.47;;;;;;;-143.84;59.34;45115.72;5088931;28;20501;-61
2023/12/03 07:17:11;;;;;;;1.90;1.57;;;;;;;-143.84;57.58;45117.63;5088093;28;20483;-61
2023/12/03 07:19:43;;;;;;;1.30;0.90;;;;;;;-143.84;57.11;45111.91;5088935;28;20501;-61
2023/12/03 07:22:11;;;;;;;1.00;0.83;;;;;;;-143.84;57.54;45110.00;5088801;28;20443;-61
2023/12/03 07:24:38;;;;;;;1.87;1.03;;;;;;;-143.84;58.13;45125.22;5089017;28;20439;-61
2023/12/03 07:27:06;;;;;;;1.80;1.67;;;;;;;-143.84;57.57;45092.88;5088508;28;20459;-61
2023/12/03 07:29:33;;;;;;;2.20;1.47;;;;;;;-143.84;58.70;45110.00;5088983;28;20438;-61
2023/12/03 07:32:00;;;;;;;1.50;1.00;;;;;;;-143.84;59.83;45096.66;5088606;28;20667;-61
2023/12/03 07:34:29;;;;;;;1.77;1.10;;;;;;;-143.84;59.83;45106.19;5089102;28;20447;-61
2023/12/03 07:36:56;;;;;;;5.20;4.10;;;;;;;-143.84;59.66;45110.00;5088459;28;20474;-61
2023/12/03 07:39:23;;;;;;;2.60;2.37;;;;;;;-143.84;60.21;45106.19;5088499;28;20443;-61
2023/12/03 07:41:51;;;;;;;2.83;1.80;;;;;;;-143.84;60.41;45106.19;5088040;28;20436;-61
2023/12/03 07:44:19;;;;;;;15.07;1.67;;;;;;;-143.84;60.05;45089.06;5088627;28;20466;-61
2023/12/03 07:46:46;;;;;;;1.73;1.33;;;;;;;-143.84;60.14;45087.16;5088430;28;20443;-61
2023/12/03 07:49:13;;;;;;;1.17;0.90;;;;;;;-143.84;60.27;45094.78;5088291;28;20444;-61
2023/12/03 07:51:42;;;;;;;1.97;1.37;;;;;;;-143.84;60.25;45087.16;5088713;28;20529;-61
2023/12/03 07:54:09;;;;;;;1.17;0.97;;;;;;;-143.84;59.80;45106.19;5088917;28;20440;-61
2023/12/03 07:56:36;;;;;;;1.03;0.60;;;;;;;-143.84;58.76;45113.81;5087920;28;20435;-61
2023/12/03 07:59:04;;;;;;;1.00;0.60;;;;;;;-143.84;58.22;45102.38;5088227;28;20444;-61
2023/12/03 08:01:31;;;;;;;3.27;1.63;;;;;;;-143.84;57.22;45106.19;5088772;28;20424;-61
2023/12/03 08:03:59;;;;;;;1.50;0.70;;;;;;;-143.84;56.88;45096.66;5088438;28;20432;-61
2023/12/03 08:06:27;;;;;;;1.70;1.60;;;;;;;-143.84;56.57;45102.38;5088622;28;21338;-61
2023/12/03 08:08:55;;;;;;;4.07;3.27;;;;;;;-143.84;56.21;45104.28;5088885;28;20436;-61
2023/12/03 08:11:22;;;;;;;3.40;3.10;;;;;;;-143.84;55.74;45130.94;5087941;28;20451;-61
2023/12/03 08:13:50;;;;;;;4.73;2.50;;;;;;;-143.84;57.31;45119.53;5088343;28;20929;-61
2023/12/03 08:16:17;;;;;;;1.47;1.37;;;;;;;-143.84;56.62;45085.25;5087952;28;20492;-61
2023/12/03 08:18:44;;;;;;;2.43;1.43;;;;;;;-143.84;56.51;45094.78;5088174;28;20491;-61
2023/12/03 08:21:12;;;;;;;3.77;1.37;;;;;;;-143.84;56.33;45111.91;5088111;28;20464;-61
2023/12/03 08:23:40;;;;;;;1.30;0.90;;;;;;;-143.84;56.62;45108.09;5088265;28;20511;-61
2023/12/03 08:26:13;;;;;;;1.20;1.00;;;;;;;-143.84;57.25;45087.16;5086493;28;20443;-61
2023/12/03 08:28:41;;;;;;;1.10;1.00;;;;;;;-143.84;57.45;45096.66;5090080;28;20448;-61
2023/12/03 08:31:21;;;;;;;0.90;0.70;;;;;;;-143.84;55.99;45113.81;5091904;28;20436;-61
2023/12/03 08:33:52;;;;;;;2.00;1.27;;;;;;;-143.84;54.49;45075.72;5090817;28;20844;-61
2023/12/03 08:36:20;;;;;;;1.73;0.90;;;;;;;-143.84;55.23;45098.56;5090876;28;20423;-61
2023/12/03 08:38:49;;;;;;;0.80;0.60;;;;;;;-143.84;54.82;45117.63;5090217;28;20486;-61
2023/12/03 08:41:22;;;;;;;1.00;0.50;;;;;;;-143.84;55.24;45119.53;5090060;28;20531;-61
2023/12/03 08:43:53;;;;;;;1.87;1.03;;;;;;;-143.84;56.73;45111.91;5090528;28;20527;-61
2023/12/03 08:46:21;;;;;;;9.80;2.93;;;;;;;-143.84;56.54;45100.47;5090716;28;20817;-61
2023/12/03 08:48:49;;;;;;;2.90;2.17;;;;;;;-143.84;56.44;45100.47;5091626;28;21040;-61
2023/12/03 08:51:17;;;;;;;4.40;2.47;;;;;;;-143.84;56.76;45087.16;5091666;28;20444;-61
2023/12/03 08:53:45;;;;;;;7.03;3.80;;;;;;;-143.84;57.56;45092.88;5091520;28;20439;-61
2023/12/03 08:56:14;;;;;;;7.00;4.43;;;;;;;-143.84;57.46;45125.22;5090809;28;20447;-61
2023/12/03 08:58:43;;;;;;;2.03;1.90;;;;;;;-143.84;57.32;45106.19;5091429;28;20490;-61
2023/12/03 09:01:15;;;;;;;2.03;1.83;;;;;;;-143.84;57.42;45110.00;5091312;28;20475;-61
2023/12/03 09:03:43;;;;;;;1.50;1.40;;;;;;;-143.84;56.59;45104.28;5082922;28;20439;-61
2023/12/03 09:06:13;;;;;;;3.03;1.43;;;;;;;-143.84;55.87;45098.56;5069821;28;20440;-61
2023/12/03 09:08:42;;;;;;;12.53;2.57;;;;;;;-143.84;56.45;45089.06;5070178;28;20445;-61
2023/12/03 09:11:09;;;;;;;4.23;1.20;;;;;;;-143.84;51.53;45079.53;5070142;28;20783;-61
2023/12/03 09:13:36;;;;;;;0.90;0.63;;;;;;;-143.84;49.98;45094.78;5068494;28;20531;-61
2023/12/03 09:16:06;;;;;;;1.53;1.10;;;;;;;-143.84;49.76;45068.13;5070309;28;20488;-61
2023/12/03 09:18:38;;;;;;;3.80;1.13;;;;;;;-143.84;47.83;45070.00;5070758;28;20500;-60
2023/12/03 09:21:11;;;;;;;1.43;0.80;;;;;;;-143.84;47.46;45081.44;5075288;28;20455;-60
2023/12/03 09:23:41;;;;;;;0.83;0.47;;;;;;;-143.84;48.52;45066.22;5075866;28;20534;-61
2023/12/03 09:26:11;;;;;;;1.13;1.03;;;;;;;-143.84;48.63;45083.34;5070655;28;20437;-61
2023/12/03 09:28:48;;;;;;;1.13;1.03;;;;;;;-143.84;47.20;45066.22;5070493;28;20452;-60
2023/12/03 09:31:17;;;;;;;2.13;0.83;;;;;;;-143.84;46.38;45070.00;5070625;28;20448;-61
2023/12/03 09:33:45;;;;;;;2.47;1.20;;;;;;;-143.84;47.65;45068.13;5069282;28;20441;-61
2023/12/03 09:36:13;;;;;;;1.80;1.43;;;;;;;-143.84;47.68;45062.41;5069211;28;20445;-61
2023/12/03 09:38:42;;;;;;;3.40;1.97;;;;;;;-143.84;48.00;45062.41;5069804;28;20476;-61
2023/12/03 09:41:13;;;;;;;2.63;1.43;;;;;;;-143.84;48.43;45071.91;5070568;28;20441;-61
2023/12/03 09:43:43;;;;;;;1.63;1.27;;;;;;;-143.84;47.76;45075.72;5070447;28;20520;-61
2023/12/03 09:46:15;;;;;;;1.00;0.83;;;;;;;-143.84;46.38;45073.81;5070255;28;21100;-60
2023/12/03 09:48:46;;;;;;;2.37;1.80;;;;;;;-143.84;46.47;45068.13;5068054;28;20448;-61
2023/12/03 09:51:15;;;;;;;1.10;1.00;;;;;;;-143.84;47.02;45090.97;5069074;28;20824;-61
2023/12/03 09:53:48;;;;;;;1.23;0.80;;;;;;;-143.84;46.82;45077.63;5068851;28;20792;-61
2023/12/03 09:56:18;;;;;;;1.10;1.00;;;;;;;-143.84;47.25;45081.44;5070327;28;20505;-60
2023/12/03 09:58:47;;;;;;;1.10;0.50;;;;;;;-143.84;47.04;45037.66;5070146;28;20476;-61
2023/12/03 10:01:14;;;;;;;2.03;1.60;;;;;;;-143.84;46.58;45090.97;5069072;28;21187;-61
2023/12/03 10:03:44;;;;;;;1.17;0.93;;;;;;;-143.84;45.66;45068.13;5070231;28;21179;-61
2023/12/03 10:06:13;;;;;;;1.30;0.90;;;;;;;-143.84;44.54;45089.06;5068687;28;20946;-61
2023/12/03 10:08:42;;;;;;;0.90;0.60;;;;;;;-143.84;44.13;45066.22;5069822;28;20444;-61
2023/12/03 10:11:18;;;;;;;1.40;0.60;;;;;;;-143.84;43.67;45079.53;5070030;28;20433;-61
2023/12/03 10:13:45;;;;;;;1.57;1.00;;;;;;;-143.84;43.36;45066.22;5070113;28;20447;-61
2023/12/03 10:16:15;;;;;;;1.07;0.70;;;;;;;-143.84;43.17;45071.91;5069210;28;20472;-60
2023/12/03 10:18:47;;;;;;;0.90;0.50;;;;;;;-143.84;43.03;45092.88;5069790;28;20487;-61
2023/12/03 10:21:16;;;;;;;1.10;0.80;;;;;;;-143.84;43.10;45064.31;5069522;28;20457;-60
2023/12/03 10:23:57;;;;;;;0.90;0.60;;;;;;;-143.84;43.22;45129.03;5068229;28;21034;-61
2023/12/03 10:26:28;;;;;;;1.70;1.10;;;;;;;-143.84;43.00;45094.78;5069465;28;20953;-61
2023/12/03 10:28:58;;;;;;;0.90;0.50;;;;;;;-143.84;43.41;45066.22;5069579;28;20453;-61
2023/12/03 10:31:30;;;;;;;1.20;0.73;;;;;;;-143.84;43.28;45070.00;5069885;28;20433;-61
2023/12/03 10:33:59;;;;;;;0.90;0.60;;;;;;;-143.84;43.42;45075.72;5068454;28;20966;-60
2023/12/03 10:36:31;;;;;;;0.80;0.50;;;;;;;-143.84;42.48;45070.00;5069459;28;20448;-61
2023/12/03 10:38:59;;;;;;;1.03;0.77;;;;;;;-143.84;42.24;45092.88;5051621;28;20538;-61
2023/12/03 10:41:30;;;;;;;1.53;0.50;;;;;;;-143.84;41.76;45092.88;5069460;28;20437;-60
2023/12/03 10:43:58;;;;;;;0.80;0.40;;;;;;;-143.84;40.99;45073.81;5069613;28;20441;-61
2023/12/03 10:46:26;;;;;;;0.90;0.60;;;;;;;-143.84;41.09;45083.34;5067440;28;20555;-60
2023/12/03 10:48:55;;;;;;;0.90;0.50;;;;;;;-143.84;41.03;45085.25;5068423;28;20441;-60
2023/12/03 10:51:26;;;;;;;6.00;1.03;;;;;;;-143.84;40.55;45079.53;5068742;28;20452;-61
2023/12/03 10:53:55;;;;;;;0.80;0.40;;;;;;;-143.84;39.40;45068.13;5068793;28;20441;-60
2023/12/03 10:56:23;;;;;;;1.10;0.73;;;;;;;-143.84;40.11;45077.63;5068887;28;20791;-60
2023/12/03 10:58:51;;;;;;;0.90;0.47;;;;;;;-143.84;40.69;45077.63;5068696;28;20582;-61
2023/12/03 11:01:25;;;;;;;0.80;0.40;;;;;;;-143.84;40.86;45068.13;5068859;28;20437;-60
2023/12/03 11:03:57;;;;;;;1.20;0.63;;;;;;;-143.84;41.04;45079.53;5069115;28;20437;-60
2023/12/03 11:06:27;;;;;;;0.80;0.40;;;;;;;-143.84;41.54;45064.31;5068933;28;20449;-60
2023/12/03 11:08:57;;;;;;;1.73;0.70;;;;;;;-143.84;41.59;45087.16;5068891;28;20509;-60
2023/12/03 11:11:24;;;;;;;7.10;1.37;;;;;;;-143.84;41.95;45094.78;5075080;28;20478;-60
2023/12/03 11:13:53;;;;;;;0.80;0.40;;;;;;;-143.84;42.50;45056.69;5082710;28;20458;-60
2023/12/03 11:16:23;;;;;;;0.80;0.50;;;;;;;-143.84;42.30;45130.94;5085477;28;21253;-61
2023/12/03 11:18:54;;;;;;;0.90;0.50;;;;;;;-143.84;42.36;45070.00;5085602;28;20482;-60
2023/12/03 11:21:38;;;;;;;0.80;0.40;;;;;;;-143.84;42.91;45089.06;5086555;28;20463;-60